createdAt,value
2022-08-20T00:00:28.810Z,72.63
2022-08-20T00:01:28.857Z,72.83
2022-08-20T00:02:28.791Z,73.03
2022-08-20T00:03:28.785Z,73.33
2022-08-20T00:04:28.791Z,73.54
2022-08-20T00:05:28.754Z,73.74
2022-08-20T00:06:28.764Z,73.74
2022-08-20T00:07:28.732Z,73.84
2022-08-20T00:08:28.721Z,73.94
2022-08-20T00:09:28.711Z,73.84
2022-08-20T00:10:28.695Z,73.84
2022-08-20T00:11:29.010Z,73.84
2022-08-20T00:12:28.692Z,73.94
2022-08-20T00:13:28.663Z,74.04
2022-08-20T00:14:28.652Z,74.24
2022-08-20T00:15:28.642Z,74.48
2022-08-20T00:16:28.654Z,74.57
2022-08-20T00:17:28.647Z,74.77
2022-08-20T00:18:28.603Z,74.88
2022-08-20T00:19:28.597Z,75.18
2022-08-20T00:20:28.590Z,75.48
2022-08-20T00:21:28.573Z,75.58
2022-08-20T00:22:28.554Z,75.68
2022-08-20T00:23:28.563Z,76.08
2022-08-20T00:24:28.533Z,76.28
2022-08-20T00:25:28.524Z,76.38
2022-08-20T00:26:28.508Z,76.48
2022-08-20T00:27:28.504Z,76.68
2022-08-20T00:28:28.505Z,76.78
2022-08-20T00:29:28.483Z,76.89
2022-08-20T00:30:28.463Z,76.89
2022-08-20T00:31:28.455Z,76.78
2022-08-20T00:32:28.448Z,76.89
2022-08-20T00:33:28.434Z,77.09
2022-08-20T00:34:28.433Z,76.89
2022-08-20T00:35:28.415Z,76.89
2022-08-20T00:36:32.541Z,77.05
2022-08-20T00:37:28.385Z,77.05
2022-08-20T00:38:28.366Z,77.05
2022-08-20T00:39:28.375Z,77.05
2022-08-20T00:40:28.344Z,77.15
2022-08-20T00:41:28.337Z,77.05
2022-08-20T00:42:28.316Z,76.95
2022-08-20T00:43:28.307Z,76.71
2022-08-20T00:44:28.294Z,76.61
2022-08-20T00:45:28.306Z,76.31
2022-08-20T00:46:31.878Z,76.31
2022-08-20T00:47:28.267Z,76.31
2022-08-20T00:48:28.249Z,76.31
2022-08-20T00:49:28.247Z,76.41
2022-08-20T00:50:28.245Z,76.75
2022-08-20T00:51:29.913Z,76.95
2022-08-20T00:52:28.197Z,77.21
2022-08-20T00:53:28.196Z,77.21
2022-08-20T00:54:28.178Z,77.11
2022-08-20T00:55:31.514Z,77.11
2022-08-20T00:56:28.168Z,77.11
2022-08-20T00:57:28.140Z,77.01
2022-08-20T00:58:29.131Z,76.98
2022-08-20T00:59:28.118Z,76.87
2022-08-20T01:00:28.142Z,76.78
2022-08-20T01:01:28.206Z,76.87
2022-08-20T01:02:28.101Z,76.78
2022-08-20T01:03:28.078Z,76.87
2022-08-20T01:04:28.058Z,76.98
2022-08-20T01:05:29.574Z,77.08
2022-08-20T01:06:28.040Z,76.98
2022-08-20T01:07:28.053Z,76.87
2022-08-20T01:08:28.025Z,77.08
2022-08-20T01:09:49.446Z,76.94
2022-08-20T01:10:28.987Z,77.04
2022-08-20T01:11:27.984Z,77.04
2022-08-20T01:12:28.996Z,76.94
2022-08-20T01:13:27.958Z,76.94
2022-08-20T01:14:27.940Z,76.94
2022-08-20T01:15:31.099Z,77.04
2022-08-20T01:16:28.115Z,77.14
2022-08-20T01:17:27.911Z,77.04
2022-08-20T01:18:28.006Z,77.14
2022-08-20T01:19:29.173Z,77.14
2022-08-20T01:20:27.872Z,77.24
2022-08-20T01:21:27.873Z,77.44
2022-08-20T01:22:27.855Z,77.54
2022-08-20T01:23:27.864Z,77.64
2022-08-20T01:24:27.832Z,77.64
2022-08-20T01:25:27.822Z,77.84
2022-08-20T01:26:27.811Z,77.74
2022-08-20T01:27:27.802Z,77.94
2022-08-20T01:28:27.790Z,78.04
2022-08-20T01:29:27.792Z,78.14
2022-08-20T01:30:27.764Z,78.24
2022-08-20T01:31:27.752Z,78.48
2022-08-20T01:32:27.742Z,78.78
2022-08-20T01:33:27.734Z,78.88
2022-08-20T01:34:27.733Z,79.08
2022-08-20T01:35:27.711Z,79.08
2022-08-20T01:36:27.693Z,79.18
2022-08-20T01:37:31.457Z,79.18
2022-08-20T01:38:27.674Z,79.28
2022-08-20T01:39:27.662Z,79.24
2022-08-20T01:40:27.665Z,79.34
2022-08-20T01:41:28.879Z,79.34
2022-08-20T01:42:27.658Z,79.34
2022-08-20T01:43:27.614Z,79.44
2022-08-20T01:44:27.612Z,79.44
2022-08-20T01:45:27.804Z,79.54
2022-08-20T01:46:27.586Z,79.64
2022-08-20T01:47:27.566Z,79.78
2022-08-20T01:48:27.574Z,79.85
2022-08-20T01:49:27.546Z,79.98
2022-08-20T01:50:27.558Z,80.08
2022-08-20T01:51:27.525Z,80.18
2022-08-20T01:52:27.516Z,80.18
2022-08-20T01:53:27.498Z,80.38
2022-08-20T01:54:27.496Z,80.38
2022-08-20T01:55:27.486Z,80.48
2022-08-20T01:56:27.489Z,80.58
2022-08-20T01:57:27.464Z,80.79
2022-08-20T01:58:27.469Z,80.88
2022-08-20T01:59:27.463Z,80.98
2022-08-20T02:00:27.429Z,81.18
2022-08-20T02:01:27.540Z,81.32
2022-08-20T02:02:27.407Z,81.42
2022-08-20T02:03:27.389Z,81.52
2022-08-20T02:04:27.378Z,81.73
2022-08-20T02:05:29.899Z,81.93
2022-08-20T02:06:27.357Z,82.12
2022-08-20T02:07:27.359Z,82.32
2022-08-20T02:08:27.329Z,82.53
2022-08-20T02:09:27.341Z,82.63
2022-08-20T02:10:27.310Z,82.73
2022-08-20T02:11:27.302Z,82.73
2022-08-20T02:12:27.318Z,82.82
2022-08-20T02:13:27.277Z,83.03
2022-08-20T02:14:27.270Z,83.23
2022-08-20T02:15:34.774Z,83.33
2022-08-20T02:16:28.241Z,83.33
2022-08-20T02:17:27.231Z,83.33
2022-08-20T02:18:27.246Z,83.53
2022-08-20T02:19:27.213Z,83.53
2022-08-20T02:20:27.201Z,83.53
2022-08-20T02:21:27.182Z,83.53
2022-08-20T02:22:27.171Z,83.53
2022-08-20T02:23:27.179Z,83.53
2022-08-20T02:24:27.150Z,83.53
2022-08-20T02:25:27.141Z,83.63
2022-08-20T02:26:27.142Z,83.73
2022-08-20T02:27:27.110Z,83.63
2022-08-20T02:28:27.101Z,83.73
2022-08-20T02:29:27.101Z,83.73
2022-08-20T02:30:27.888Z,83.83
2022-08-20T02:31:27.898Z,83.73
2022-08-20T02:32:33.621Z,83.87
2022-08-20T02:33:28.042Z,83.83
2022-08-20T02:34:27.052Z,83.87
2022-08-20T02:35:27.029Z,83.83
2022-08-20T02:36:27.011Z,83.83
2022-08-20T02:37:26.993Z,83.83
2022-08-20T02:38:26.982Z,83.83
2022-08-20T02:39:26.978Z,83.83
2022-08-20T02:40:30.464Z,83.83
2022-08-20T02:41:26.943Z,83.83
2022-08-20T02:42:26.933Z,83.83
2022-08-20T02:43:26.924Z,83.83
2022-08-20T02:44:26.913Z,83.83
2022-08-20T02:45:26.924Z,83.93
2022-08-20T02:46:26.894Z,84.03
2022-08-20T02:47:26.874Z,84.03
2022-08-20T02:48:26.864Z,83.93
2022-08-20T02:49:26.853Z,84.03
2022-08-20T02:50:26.843Z,84.03
2022-08-20T02:51:30.419Z,84.03
2022-08-20T02:52:26.822Z,84.03
2022-08-20T02:53:26.805Z,84.13
2022-08-20T02:54:26.796Z,84.13
2022-08-20T02:55:27.380Z,84.13
2022-08-20T02:56:26.796Z,84.23
2022-08-20T02:57:26.768Z,84.33
2022-08-20T02:58:26.756Z,84.33
2022-08-20T02:59:26.735Z,84.43
2022-08-20T03:00:26.751Z,84.43
2022-08-20T03:01:26.765Z,84.53
2022-08-20T03:02:26.724Z,84.43
2022-08-20T03:03:26.707Z,84.43
2022-08-20T03:04:26.687Z,84.33
2022-08-20T03:05:26.667Z,84.23
2022-08-20T03:06:26.656Z,84.13
2022-08-20T03:07:26.667Z,84.13
2022-08-20T03:08:26.638Z,84.13
2022-08-20T03:09:26.626Z,84.09
2022-08-20T03:10:26.617Z,83.93
2022-08-20T03:11:26.597Z,83.89
2022-08-20T03:12:26.587Z,83.79
2022-08-20T03:13:26.599Z,83.79
2022-08-20T03:14:26.567Z,83.79
2022-08-20T03:15:26.548Z,83.79
2022-08-20T03:16:26.548Z,83.79
2022-08-20T03:17:26.552Z,83.79
2022-08-20T03:18:26.519Z,83.69
2022-08-20T03:19:26.528Z,83.69
2022-08-20T03:20:26.504Z,83.69
2022-08-20T03:21:26.489Z,83.59
2022-08-20T03:22:26.477Z,83.69
2022-08-20T03:23:26.459Z,83.69
2022-08-20T03:24:26.451Z,83.69
2022-08-20T03:25:26.460Z,83.69
2022-08-20T03:26:26.431Z,83.69
2022-08-20T03:27:26.845Z,83.79
2022-08-20T03:28:27.400Z,83.79
2022-08-20T03:29:26.390Z,83.79
2022-08-20T03:30:26.380Z,83.79
2022-08-20T03:31:26.380Z,83.79
2022-08-20T03:32:26.360Z,83.79
2022-08-20T03:33:26.349Z,83.69
2022-08-20T03:34:26.341Z,83.79
2022-08-20T03:35:26.336Z,83.79
2022-08-20T03:36:27.829Z,83.89
2022-08-20T03:37:26.299Z,83.79
2022-08-20T03:38:32.622Z,83.99
2022-08-20T03:39:27.272Z,83.99
2022-08-20T03:40:26.263Z,84.13
2022-08-20T03:41:26.252Z,84.23
2022-08-20T03:42:26.260Z,84.23
2022-08-20T03:43:26.223Z,84.53
2022-08-20T03:44:26.221Z,84.74
2022-08-20T03:45:26.204Z,84.63
2022-08-20T03:46:26.204Z,84.63
2022-08-20T03:47:26.202Z,84.63
2022-08-20T03:48:26.173Z,84.63
2022-08-20T03:49:26.163Z,84.63
2022-08-20T03:50:26.152Z,84.83
2022-08-20T03:51:26.133Z,85.13
2022-08-20T03:52:26.153Z,85.13
2022-08-20T03:53:26.115Z,85.13
2022-08-20T03:54:29.110Z,85.24
2022-08-20T03:55:27.094Z,85.44
2022-08-20T03:56:26.086Z,85.44
2022-08-20T03:57:26.064Z,85.53
2022-08-20T03:58:34.735Z,85.53
2022-08-20T03:59:27.047Z,85.63
2022-08-20T04:00:26.044Z,85.74
2022-08-20T04:01:45.285Z,85.94
2022-08-20T04:02:27.015Z,86.14
2022-08-20T04:03:26.046Z,86.14
2022-08-20T04:04:25.995Z,86.24
2022-08-20T04:05:28.291Z,86.24
2022-08-20T04:06:25.975Z,86.14
2022-08-20T04:07:26.057Z,86.14
2022-08-20T04:08:25.954Z,87.24
2022-08-20T04:09:25.955Z,88.44
2022-08-20T04:10:25.926Z,89.25
2022-08-20T04:11:25.906Z,90.15
2022-08-20T04:12:25.916Z,90.65
2022-08-20T04:13:25.890Z,90.89
2022-08-20T04:14:25.877Z,92.90
2022-08-20T04:15:25.897Z,94.00
2022-08-20T04:16:25.856Z,93.90
2022-08-20T04:17:25.840Z,94.60
2022-08-20T04:18:25.838Z,95.01
2022-08-20T04:19:25.817Z,96.71
2022-08-20T04:20:25.814Z,97.56
2022-08-20T04:21:25.816Z,97.26
2022-08-20T04:22:26.787Z,97.46
2022-08-20T04:23:25.768Z,98.57
2022-08-20T04:24:32.548Z,99.97
2022-08-20T04:25:26.750Z,99.99
2022-08-20T04:26:25.739Z,99.57
2022-08-20T04:27:25.747Z,99.87
2022-08-20T04:28:32.762Z,99.99
2022-08-20T04:29:25.700Z,99.67
2022-08-20T04:30:26.694Z,99.99
2022-08-20T04:31:25.737Z,99.99
2022-08-20T04:32:25.674Z,99.99
2022-08-20T04:33:34.148Z,99.99
2022-08-20T04:34:26.642Z,99.99
2022-08-20T04:35:25.623Z,99.99
2022-08-20T04:36:25.622Z,99.99
2022-08-20T04:37:25.603Z,99.99
2022-08-20T04:38:25.614Z,99.99
2022-08-20T04:39:26.581Z,99.99
2022-08-20T04:40:25.572Z,99.99
2022-08-20T04:41:25.555Z,99.99
2022-08-20T04:42:25.552Z,99.99
2022-08-20T04:43:25.569Z,99.99
2022-08-20T04:44:25.553Z,99.99
2022-08-20T04:45:25.512Z,99.99
2022-08-20T04:46:25.827Z,99.99
2022-08-20T04:47:34.816Z,99.99
2022-08-20T04:48:26.474Z,99.99
2022-08-20T04:49:25.485Z,99.99
2022-08-20T04:50:25.455Z,99.99
2022-08-20T04:51:25.443Z,99.99
2022-08-20T04:52:25.425Z,99.99
2022-08-20T04:53:26.052Z,99.99
2022-08-20T04:54:25.406Z,99.99
2022-08-20T04:55:25.415Z,99.99
2022-08-20T04:56:25.384Z,99.99
2022-08-20T04:57:25.366Z,99.99
2022-08-20T04:58:25.364Z,99.99
2022-08-20T04:59:25.345Z,99.99
2022-08-20T05:00:25.356Z,99.99
2022-08-20T05:01:25.347Z,99.99
2022-08-20T05:02:25.306Z,99.99
2022-08-20T05:03:25.297Z,99.99
2022-08-20T05:04:25.287Z,99.99
2022-08-20T05:05:25.276Z,99.99
2022-08-20T05:06:25.308Z,99.99
2022-08-20T05:07:25.252Z,99.99
2022-08-20T05:08:25.237Z,99.99
2022-08-20T05:09:25.227Z,99.99
2022-08-20T05:10:25.218Z,99.99
2022-08-20T05:11:35.614Z,99.99
2022-08-20T05:12:26.209Z,99.99
2022-08-20T05:13:27.380Z,99.99
2022-08-20T05:14:25.186Z,99.99
2022-08-20T05:15:25.158Z,99.99
2022-08-20T05:16:25.139Z,99.99
2022-08-20T05:17:25.158Z,99.99
2022-08-20T05:18:25.122Z,99.99
2022-08-20T05:19:25.108Z,99.99
2022-08-20T05:20:25.099Z,99.99
2022-08-20T05:21:25.098Z,99.99
2022-08-20T05:22:25.069Z,99.99
2022-08-20T05:23:26.081Z,99.99
2022-08-20T05:24:25.051Z,99.99
2022-08-20T05:25:25.039Z,99.99
2022-08-20T05:26:25.030Z,99.99
2022-08-20T05:27:25.150Z,99.99
2022-08-20T05:28:24.999Z,99.99
2022-08-20T05:29:25.010Z,99.99
2022-08-20T05:30:24.982Z,99.99
2022-08-20T05:31:31.796Z,99.99
2022-08-20T05:32:25.960Z,99.99
2022-08-20T05:33:24.941Z,99.99
2022-08-20T05:34:24.931Z,99.99
2022-08-20T05:35:24.932Z,99.99
2022-08-20T05:36:24.910Z,99.99
2022-08-20T05:37:24.891Z,99.99
2022-08-20T05:38:24.881Z,99.99
2022-08-20T05:39:24.892Z,99.99
2022-08-20T05:40:24.932Z,99.99
2022-08-20T05:41:29.342Z,99.99
2022-08-20T05:42:25.842Z,99.99
2022-08-20T05:43:24.822Z,99.99
2022-08-20T05:44:24.822Z,99.99
2022-08-20T05:45:24.802Z,99.99
2022-08-20T05:46:24.793Z,99.99
2022-08-20T05:47:24.793Z,99.99
2022-08-20T05:48:24.771Z,99.99
2022-08-20T05:49:24.753Z,99.99
2022-08-20T05:50:24.743Z,99.43
2022-08-20T05:51:24.734Z,99.18
2022-08-20T05:52:24.724Z,98.78
2022-08-20T05:53:24.724Z,99.68
2022-08-20T05:54:24.695Z,98.88
2022-08-20T05:55:24.693Z,98.28
2022-08-20T05:56:27.015Z,98.38
2022-08-20T05:57:24.674Z,98.08
2022-08-20T05:58:24.674Z,98.38
2022-08-20T05:59:24.644Z,98.82
2022-08-20T06:00:24.625Z,99.13
2022-08-20T06:01:24.686Z,99.43
2022-08-20T06:02:24.606Z,99.43
2022-08-20T06:03:24.597Z,99.02
2022-08-20T06:04:24.605Z,99.33
2022-08-20T06:05:24.576Z,99.33
2022-08-20T06:06:44.639Z,98.67
2022-08-20T06:07:25.555Z,98.97
2022-08-20T06:08:24.536Z,99.17
2022-08-20T06:09:32.004Z,99.48
2022-08-20T06:10:25.541Z,99.17
2022-08-20T06:11:24.507Z,99.77
2022-08-20T06:12:24.494Z,99.27
2022-08-20T06:13:24.488Z,99.68
2022-08-20T06:14:24.469Z,99.99
2022-08-20T06:15:24.486Z,99.77
2022-08-20T06:16:24.447Z,99.83
2022-08-20T06:17:24.437Z,99.27
2022-08-20T06:18:28.358Z,99.83
2022-08-20T06:19:26.117Z,99.33
2022-08-20T06:20:24.407Z,99.33
2022-08-20T06:21:24.429Z,99.13
2022-08-20T06:22:24.967Z,99.43
2022-08-20T06:23:24.377Z,99.63
2022-08-20T06:24:24.371Z,99.02
2022-08-20T06:25:24.349Z,98.63
2022-08-20T06:26:29.773Z,98.43
2022-08-20T06:27:25.327Z,98.02
2022-08-20T06:28:24.314Z,98.13
2022-08-20T06:29:24.310Z,97.97
2022-08-20T06:30:24.289Z,96.47
2022-08-20T06:31:24.281Z,96.08
2022-08-20T06:32:28.743Z,95.67
2022-08-20T06:33:25.260Z,95.77
2022-08-20T06:34:24.240Z,96.17
2022-08-20T06:35:24.239Z,94.97
2022-08-20T06:36:24.221Z,94.97
2022-08-20T06:37:24.636Z,94.23
2022-08-20T06:38:24.221Z,93.62
2022-08-20T06:39:24.191Z,93.62
2022-08-20T06:40:24.180Z,92.82
2022-08-20T06:41:36.286Z,91.28
2022-08-20T06:42:25.153Z,91.28
2022-08-20T06:43:24.151Z,91.88
2022-08-20T06:44:24.161Z,90.67
2022-08-20T06:45:24.121Z,89.07
2022-08-20T06:46:24.111Z,90.33
2022-08-20T06:47:24.101Z,89.14
2022-08-20T06:48:24.090Z,89.23
2022-08-20T06:49:24.112Z,87.69
2022-08-20T06:50:24.073Z,86.79
2022-08-20T06:51:24.053Z,86.09
2022-08-20T06:52:27.075Z,84.49
2022-08-20T06:53:25.034Z,85.25
2022-08-20T06:54:28.587Z,84.15
2022-08-20T06:55:25.064Z,84.05
2022-08-20T06:56:24.013Z,84.71
2022-08-20T06:57:23.992Z,84.11
2022-08-20T06:58:36.774Z,83.71
2022-08-20T06:59:24.965Z,84.67
2022-08-20T07:00:23.953Z,83.47
2022-08-20T07:01:23.983Z,83.13
2022-08-20T07:02:30.172Z,82.34
2022-08-20T07:03:24.924Z,81.84
2022-08-20T07:04:23.905Z,81.40
2022-08-20T07:05:23.895Z,80.70
2022-08-20T07:06:23.885Z,80.50
2022-08-20T07:07:23.890Z,80.16
2022-08-20T07:08:23.856Z,78.70
2022-08-20T07:09:23.847Z,79.00
2022-08-20T07:10:23.844Z,79.70
2022-08-20T07:11:28.181Z,79.70
2022-08-20T07:12:24.857Z,78.41
2022-08-20T07:13:23.806Z,79.16
2022-08-20T07:14:23.787Z,78.77
2022-08-20T07:15:23.786Z,79.06
2022-08-20T07:16:23.770Z,78.86
2022-08-20T07:17:24.282Z,78.17
2022-08-20T07:18:27.960Z,77.87
2022-08-20T07:19:23.738Z,77.07
2022-08-20T07:20:23.729Z,76.71
2022-08-20T07:21:23.719Z,77.40
2022-08-20T07:22:23.699Z,76.91
2022-08-20T07:23:23.717Z,76.97
2022-08-20T07:24:23.678Z,77.57
2022-08-20T07:25:24.671Z,76.37
2022-08-20T07:26:23.657Z,76.77
2022-08-20T07:27:23.648Z,76.37
2022-08-20T07:28:23.637Z,76.91
2022-08-20T07:29:23.649Z,77.70
2022-08-20T07:30:23.691Z,77.11
2022-08-20T07:31:23.610Z,76.81
2022-08-20T07:32:23.590Z,77.51
2022-08-20T07:33:24.652Z,76.31
2022-08-20T07:34:23.591Z,76.17
2022-08-20T07:35:23.561Z,75.27
2022-08-20T07:36:23.551Z,74.98
2022-08-20T07:37:23.542Z,74.98
2022-08-20T07:38:23.522Z,74.34
2022-08-20T07:39:23.521Z,74.64
2022-08-20T07:40:26.084Z,74.74
2022-08-20T07:41:23.493Z,74.74
2022-08-20T07:42:23.481Z,73.44
2022-08-20T07:43:23.472Z,73.85
2022-08-20T07:44:30.773Z,73.91
2022-08-20T07:45:24.472Z,74.01
2022-08-20T07:46:23.433Z,73.08
2022-08-20T07:47:24.433Z,71.58
2022-08-20T07:48:30.867Z,72.78
2022-08-20T07:49:24.413Z,71.78
2022-08-20T07:50:23.397Z,70.79
2022-08-20T07:51:23.406Z,70.26
2022-08-20T07:52:23.364Z,70.42
2022-08-20T07:53:23.363Z,68.57
2022-08-20T07:54:23.345Z,68.33
2022-08-20T07:55:23.343Z,66.94
2022-08-20T07:56:24.470Z,67.41
2022-08-20T07:57:23.334Z,66.78
2022-08-20T07:58:23.314Z,67.27
2022-08-20T07:59:24.295Z,65.59
2022-08-20T08:00:23.294Z,66.41
2022-08-20T08:01:23.309Z,66.55
2022-08-20T08:02:23.277Z,67.07
2022-08-20T08:03:23.247Z,68.50
2022-08-20T08:04:24.235Z,68.60
2022-08-20T08:05:23.227Z,69.29
2022-08-20T08:06:29.214Z,68.99
2022-08-20T08:07:24.249Z,68.66
2022-08-20T08:08:23.192Z,67.97
2022-08-20T08:09:23.186Z,67.94
2022-08-20T08:10:23.216Z,67.44
2022-08-20T08:11:23.158Z,66.85
2022-08-20T08:12:23.146Z,68.04
2022-08-20T08:13:23.186Z,67.60
2022-08-20T08:14:23.119Z,66.71
2022-08-20T08:15:23.109Z,67.11
2022-08-20T08:16:23.098Z,65.99
2022-08-20T08:17:23.089Z,66.68
2022-08-20T08:18:23.070Z,66.98
2022-08-20T08:19:23.090Z,66.88
2022-08-20T08:20:23.050Z,67.08
2022-08-20T08:21:23.040Z,66.28
2022-08-20T08:22:23.032Z,66.18
2022-08-20T08:23:24.749Z,66.48
2022-08-20T08:24:27.794Z,67.27
2022-08-20T08:25:23.000Z,66.15
2022-08-20T08:26:22.982Z,65.16
2022-08-20T08:27:22.982Z,65.33
2022-08-20T08:28:22.962Z,65.33
2022-08-20T08:29:22.954Z,64.83
2022-08-20T08:30:22.953Z,64.73
2022-08-20T08:31:22.932Z,65.03
2022-08-20T08:32:22.914Z,64.43
2022-08-20T08:33:22.913Z,64.34
2022-08-20T08:34:22.893Z,63.97
2022-08-20T08:35:22.913Z,64.47
2022-08-20T08:36:22.875Z,64.59
2022-08-20T08:37:22.864Z,65.19
2022-08-20T08:38:22.863Z,65.49
2022-08-20T08:39:22.843Z,65.59
2022-08-20T08:40:22.855Z,66.08
2022-08-20T08:41:22.844Z,65.69
2022-08-20T08:42:22.805Z,65.39
2022-08-20T08:43:22.795Z,65.39
2022-08-20T08:44:22.785Z,64.86
2022-08-20T08:45:22.776Z,65.86
2022-08-20T08:46:22.766Z,65.03
2022-08-20T08:47:22.778Z,64.73
2022-08-20T08:48:22.745Z,65.13
2022-08-20T08:49:22.735Z,64.40
2022-08-20T08:50:43.847Z,65.00
2022-08-20T08:51:23.715Z,64.31
2022-08-20T08:52:22.977Z,64.04
2022-08-20T08:53:22.707Z,62.66
2022-08-20T08:54:22.677Z,62.85
2022-08-20T08:55:22.668Z,63.55
2022-08-20T08:56:22.649Z,63.85
2022-08-20T08:57:22.647Z,65.79
2022-08-20T08:58:22.632Z,68.20
2022-08-20T08:59:22.639Z,69.03
2022-08-20T09:00:22.607Z,68.86
2022-08-20T09:01:56.620Z,72.57
2022-08-20T09:02:23.648Z,73.27
2022-08-20T09:03:22.580Z,73.60
2022-08-20T09:04:22.560Z,73.33
2022-08-20T09:05:22.575Z,75.22
2022-08-20T09:06:22.541Z,73.43
2022-08-20T09:07:22.531Z,73.33
2022-08-20T09:08:22.521Z,74.03
2022-08-20T09:09:22.511Z,74.63
2022-08-20T09:10:23.074Z,74.13
2022-08-20T09:11:22.497Z,73.14
2022-08-20T09:12:22.472Z,73.24
2022-08-20T09:13:22.474Z,73.73
2022-08-20T09:14:22.452Z,72.80
2022-08-20T09:15:22.443Z,72.41
2022-08-20T09:16:22.490Z,72.67
2022-08-20T09:17:22.422Z,71.44
2022-08-20T09:18:22.403Z,72.04
2022-08-20T09:19:22.396Z,71.61
2022-08-20T09:20:23.031Z,69.72
2022-08-20T09:21:22.376Z,70.88
2022-08-20T09:22:22.383Z,70.15
2022-08-20T09:23:22.355Z,66.09
2022-08-20T09:24:22.344Z,64.48
2022-08-20T09:25:22.334Z,64.25
2022-08-20T09:26:22.315Z,64.22
2022-08-20T09:27:23.344Z,65.01
2022-08-20T09:28:22.295Z,65.70
2022-08-20T09:29:22.286Z,62.17
2022-08-20T09:30:22.275Z,61.48
2022-08-20T09:31:22.266Z,60.10
2022-08-20T09:32:22.247Z,60.69
2022-08-20T09:33:22.264Z,59.53
2022-08-20T09:34:22.227Z,59.93
2022-08-20T09:35:22.219Z,60.13
2022-08-20T09:36:31.627Z,60.85
2022-08-20T09:37:23.198Z,61.67
2022-08-20T09:38:22.206Z,61.83
2022-08-20T09:39:22.180Z,63.15
2022-08-20T09:40:22.187Z,63.87
2022-08-20T09:41:22.162Z,64.99
2022-08-20T09:42:22.140Z,64.37
2022-08-20T09:43:22.129Z,65.19
2022-08-20T09:44:22.132Z,64.70
2022-08-20T09:45:22.111Z,65.78
2022-08-20T09:46:27.150Z,65.69
2022-08-20T09:47:23.090Z,65.42
2022-08-20T09:48:22.071Z,65.82
2022-08-20T09:49:23.089Z,65.02
2022-08-20T09:50:22.051Z,65.32
2022-08-20T09:51:22.090Z,65.52
2022-08-20T09:52:22.030Z,65.29
2022-08-20T09:53:22.022Z,65.22
2022-08-20T09:54:22.011Z,65.82
2022-08-20T09:55:22.020Z,66.94
2022-08-20T09:56:21.983Z,68.13
2022-08-20T09:57:21.973Z,68.43
2022-08-20T09:58:21.962Z,66.85
2022-08-20T09:59:21.953Z,68.83
2022-08-20T10:00:21.944Z,68.43
2022-08-20T10:01:22.028Z,70.36
2022-08-20T10:02:21.915Z,71.88
2022-08-20T10:03:21.914Z,72.87
2022-08-20T10:04:21.895Z,73.30
2022-08-20T10:05:21.884Z,73.70
2022-08-20T10:06:21.895Z,72.21
2022-08-20T10:07:21.856Z,72.55
2022-08-20T10:08:21.856Z,73.64
2022-08-20T10:09:21.845Z,74.04
2022-08-20T10:10:21.834Z,75.16
2022-08-20T10:11:21.818Z,75.57
2022-08-20T10:12:21.826Z,74.73
2022-08-20T10:13:21.786Z,73.84
2022-08-20T10:14:21.790Z,72.21
2022-08-20T10:15:21.781Z,72.41
2022-08-20T10:16:21.765Z,71.72
2022-08-20T10:17:21.747Z,70.19
2022-08-20T10:18:21.790Z,69.99
2022-08-20T10:19:21.725Z,68.50
2022-08-20T10:20:21.718Z,67.47
2022-08-20T10:21:21.699Z,67.77
2022-08-20T10:22:21.701Z,68.76
2022-08-20T10:23:21.679Z,69.59
2022-08-20T10:24:21.693Z,70.52
2022-08-20T10:25:21.659Z,71.84
2022-08-20T10:26:21.650Z,73.44
2022-08-20T10:27:21.639Z,74.33
2022-08-20T10:28:21.628Z,74.73
2022-08-20T10:29:28.740Z,73.34
2022-08-20T10:30:21.606Z,72.98
2022-08-20T10:31:21.597Z,73.64
2022-08-20T10:32:21.586Z,73.04
2022-08-20T10:33:21.567Z,73.28
2022-08-20T10:34:21.557Z,73.77
2022-08-20T10:35:21.567Z,74.17
2022-08-20T10:36:21.536Z,73.97
2022-08-20T10:37:21.517Z,73.04
2022-08-20T10:38:21.516Z,72.11
2022-08-20T10:39:21.498Z,72.01
2022-08-20T10:40:21.548Z,72.41
2022-08-20T10:41:21.498Z,72.94
2022-08-20T10:42:21.468Z,73.24
2022-08-20T10:43:21.450Z,73.34
2022-08-20T10:44:21.450Z,74.17
2022-08-20T10:45:21.429Z,74.27
2022-08-20T10:46:21.420Z,74.24
2022-08-20T10:47:21.420Z,74.16
2022-08-20T10:48:21.745Z,72.80
2022-08-20T10:49:21.381Z,70.35
2022-08-20T10:50:21.378Z,69.32
2022-08-20T10:51:21.360Z,68.63
2022-08-20T10:52:22.370Z,67.77
2022-08-20T10:53:21.344Z,68.66
2022-08-20T10:54:21.332Z,68.37
2022-08-20T10:55:21.311Z,67.47
2022-08-20T10:56:21.310Z,66.88
2022-08-20T10:57:21.293Z,66.28
2022-08-20T10:58:23.130Z,66.38
2022-08-20T10:59:21.277Z,66.15
2022-08-20T11:00:21.263Z,65.06
2022-08-20T11:01:32.853Z,64.14
2022-08-20T11:02:22.300Z,62.85
2022-08-20T11:03:21.244Z,62.88
2022-08-20T11:04:21.223Z,63.80
2022-08-20T11:05:21.211Z,64.92
2022-08-20T11:06:21.203Z,65.12
2022-08-20T11:07:21.183Z,65.42
2022-08-20T11:08:33.672Z,64.76
2022-08-20T11:09:22.175Z,64.76
2022-08-20T11:10:21.153Z,63.54
2022-08-20T11:11:21.136Z,63.70
2022-08-20T11:12:21.137Z,64.17
2022-08-20T11:13:21.114Z,62.45
2022-08-20T11:14:21.125Z,62.45
2022-08-20T11:15:21.089Z,62.55
2022-08-20T11:16:21.077Z,62.15
2022-08-20T11:17:21.066Z,62.65
2022-08-20T11:18:21.056Z,61.69
2022-08-20T11:19:21.090Z,61.99
2022-08-20T11:20:21.037Z,62.48
2022-08-20T11:21:21.019Z,61.69
2022-08-20T11:22:21.019Z,61.76
2022-08-20T11:23:20.998Z,61.26
2022-08-20T11:24:20.989Z,61.26
2022-08-20T11:25:20.997Z,61.23
2022-08-20T11:26:20.971Z,61.13
2022-08-20T11:27:20.954Z,61.00
2022-08-20T11:28:31.786Z,59.39
2022-08-20T11:29:21.930Z,59.30
2022-08-20T11:30:20.927Z,59.19
2022-08-20T11:31:20.932Z,58.90
2022-08-20T11:32:20.908Z,58.43
2022-08-20T11:33:20.882Z,59.22
2022-08-20T11:34:20.880Z,59.25
2022-08-20T11:35:40.978Z,59.84
2022-08-20T11:36:21.880Z,60.05
2022-08-20T11:37:20.838Z,60.47
2022-08-20T11:38:20.831Z,60.86
2022-08-20T11:39:20.820Z,60.86
2022-08-20T11:40:20.904Z,60.74
2022-08-20T11:41:20.792Z,59.48
2022-08-20T11:42:20.802Z,59.58
2022-08-20T11:43:20.773Z,59.28
2022-08-20T11:44:21.668Z,59.67
2022-08-20T11:45:20.750Z,59.67
2022-08-20T11:46:23.349Z,60.47
2022-08-20T11:47:20.754Z,60.67
2022-08-20T11:48:20.720Z,60.96
2022-08-20T11:49:20.705Z,61.07
2022-08-20T11:50:20.693Z,61.59
2022-08-20T11:51:20.682Z,61.59
2022-08-20T11:52:20.674Z,62.29
2022-08-20T11:53:21.525Z,62.38
2022-08-20T11:54:20.645Z,62.65
2022-08-20T11:55:20.636Z,62.65
2022-08-20T11:56:21.625Z,62.02
2022-08-20T11:57:20.614Z,61.53
2022-08-20T11:58:20.625Z,60.41
2022-08-20T11:59:20.585Z,59.94
2022-08-20T12:00:20.575Z,60.02
2022-08-20T12:01:21.567Z,60.28
2022-08-20T12:02:20.594Z,58.30
2022-08-20T12:03:20.581Z,58.28
2022-08-20T12:04:20.557Z,56.10
2022-08-20T12:05:20.517Z,57.12
2022-08-20T12:06:20.517Z,57.51
2022-08-20T12:07:20.499Z,58.23
2022-08-20T12:08:25.437Z,59.18
2022-08-20T12:09:24.360Z,59.51
2022-08-20T12:10:20.468Z,59.61
2022-08-20T12:11:20.457Z,59.70
2022-08-20T12:12:20.445Z,58.61
2022-08-20T12:13:20.428Z,57.59
2022-08-20T12:14:20.420Z,57.69
2022-08-20T12:15:20.420Z,57.00
2022-08-20T12:16:20.399Z,57.20
2022-08-20T12:17:20.380Z,55.78
2022-08-20T12:18:20.370Z,55.39
2022-08-20T12:19:20.362Z,55.26
2022-08-20T12:20:20.399Z,54.86
2022-08-20T12:21:20.340Z,54.86
2022-08-20T12:22:24.750Z,53.88
2022-08-20T12:23:20.311Z,53.65
2022-08-20T12:24:20.301Z,53.75
2022-08-20T12:25:20.290Z,52.83
2022-08-20T12:26:20.302Z,52.54
2022-08-20T12:27:20.270Z,52.01
2022-08-20T12:28:25.757Z,51.40
2022-08-20T12:29:21.243Z,51.77
2022-08-20T12:30:20.242Z,50.26
2022-08-20T12:31:20.225Z,49.18
2022-08-20T12:32:20.233Z,49.05
2022-08-20T12:33:20.206Z,49.37
2022-08-20T12:34:20.193Z,49.27
2022-08-20T12:35:20.174Z,48.80
2022-08-20T12:36:20.174Z,48.80
2022-08-20T12:37:20.173Z,49.32
2022-08-20T12:38:20.149Z,49.40
2022-08-20T12:39:20.134Z,48.71
2022-08-20T12:40:30.540Z,48.98
2022-08-20T12:41:21.108Z,49.05
2022-08-20T12:42:20.105Z,49.35
2022-08-20T12:43:24.730Z,48.86
2022-08-20T12:44:21.085Z,48.16
2022-08-20T12:45:20.067Z,48.16
2022-08-20T12:46:20.058Z,48.09
2022-08-20T12:47:20.046Z,47.60
2022-08-20T12:48:20.036Z,47.81
2022-08-20T12:49:20.047Z,48.11
2022-08-20T12:50:20.019Z,48.11
2022-08-20T12:51:19.998Z,48.31
2022-08-20T12:52:19.997Z,48.71